createdAt,value
2023-05-22T00:00:41.308Z,16.83
2023-05-22T00:03:13.296Z,16.82
2023-05-22T00:05:46.022Z,16.83
2023-05-22T00:08:17.725Z,16.81
2023-05-22T00:10:49.724Z,16.81
2023-05-22T00:13:21.653Z,16.80
2023-05-22T00:15:54.702Z,16.81
2023-05-22T00:18:27.299Z,16.81
2023-05-22T00:20:59.225Z,16.81
2023-05-22T00:23:32.867Z,16.82
2023-05-22T00:26:05.163Z,16.86
2023-05-22T00:28:37.154Z,16.89
2023-05-22T00:31:09.152Z,16.90
2023-05-22T00:33:41.301Z,16.88
2023-05-22T00:36:13.217Z,16.87
2023-05-22T00:38:45.553Z,16.88
2023-05-22T00:41:17.384Z,16.87
2023-05-22T00:43:51.513Z,16.85
2023-05-22T00:46:24.673Z,16.86
2023-05-22T00:48:56.685Z,16.86
2023-05-22T00:51:28.679Z,16.86
2023-05-22T00:54:01.216Z,16.87
2023-05-22T00:56:33.547Z,16.85
2023-05-22T00:59:05.376Z,16.80
2023-05-22T01:01:39.083Z,16.75
2023-05-22T01:04:13.121Z,16.76
2023-05-22T01:06:46.855Z,16.75
2023-05-22T01:09:18.745Z,16.72
2023-05-22T01:12:09.083Z,16.70
2023-05-22T01:14:49.935Z,16.64
2023-05-22T01:17:32.662Z,16.64
2023-05-22T01:20:19.604Z,16.67
2023-05-22T01:23:12.405Z,16.68
2023-05-22T01:25:53.635Z,16.70
2023-05-22T01:28:43.503Z,16.68
2023-05-22T01:31:17.535Z,16.67
2023-05-22T01:33:52.606Z,16.65
2023-05-22T01:36:27.218Z,16.66
2023-05-22T01:39:01.744Z,16.70
2023-05-22T01:41:36.857Z,16.72
2023-05-22T01:44:08.727Z,16.74
2023-05-22T01:46:41.343Z,16.74
2023-05-22T01:49:13.213Z,16.74
2023-05-22T01:51:51.086Z,16.71
2023-05-22T01:54:43.535Z,16.70
2023-05-22T01:57:22.184Z,16.69
2023-05-22T02:00:11.427Z,16.69
2023-05-22T02:02:54.589Z,16.68
2023-05-22T02:05:26.971Z,16.64
2023-05-22T02:07:59.410Z,16.64
2023-05-22T02:10:31.621Z,16.63
2023-05-22T02:13:05.273Z,16.64
2023-05-22T02:15:37.106Z,16.62
2023-05-22T02:18:13.226Z,16.58
2023-05-22T02:20:47.602Z,16.54
2023-05-22T02:23:19.534Z,16.56
2023-05-22T02:25:51.532Z,16.59
2023-05-22T02:28:23.635Z,16.62
2023-05-22T02:30:55.738Z,16.64
2023-05-22T02:33:29.639Z,16.68
2023-05-22T02:36:01.779Z,16.69
2023-05-22T02:38:34.167Z,16.71
2023-05-22T02:41:08.922Z,16.72
2023-05-22T02:43:40.775Z,16.72
2023-05-22T02:46:12.701Z,16.70
2023-05-22T02:48:45.788Z,16.70
2023-05-22T02:51:17.778Z,16.73
2023-05-22T02:53:49.669Z,16.77
2023-05-22T02:56:22.312Z,16.82
2023-05-22T02:58:54.243Z,16.86
2023-05-22T03:01:27.782Z,16.90
2023-05-22T03:04:00.201Z,16.94
2023-05-22T03:06:32.526Z,16.98
2023-05-22T03:09:04.613Z,17.05
2023-05-22T03:11:36.728Z,17.13
2023-05-22T03:14:08.841Z,17.21
2023-05-22T03:16:41.865Z,17.25
2023-05-22T03:19:15.898Z,17.30
2023-05-22T03:21:49.824Z,17.33
2023-05-22T03:24:21.832Z,17.37
2023-05-22T03:26:53.903Z,17.40
2023-05-22T03:29:28.573Z,17.41
2023-05-22T03:32:02.523Z,17.44
2023-05-22T03:34:35.057Z,17.47
2023-05-22T03:37:07.004Z,17.53
2023-05-22T03:39:40.077Z,17.54
2023-05-22T03:42:13.862Z,17.58
2023-05-22T03:44:46.058Z,17.69
2023-05-22T03:47:17.989Z,17.92
2023-05-22T03:49:50.102Z,18.13
2023-05-22T03:52:22.749Z,18.31
2023-05-22T03:54:54.560Z,18.46
2023-05-22T03:57:26.464Z,18.61
2023-05-22T03:59:59.987Z,18.78
2023-05-22T04:02:32.134Z,18.93
2023-05-22T04:05:04.477Z,18.95
2023-05-22T04:07:36.816Z,18.93
2023-05-22T04:10:09.071Z,18.90
2023-05-22T04:12:41.391Z,18.87
2023-05-22T04:15:13.098Z,18.89
2023-05-22T04:17:45.736Z,18.88
2023-05-22T04:20:18.231Z,18.88
2023-05-22T04:22:51.037Z,18.92
2023-05-22T04:25:23.171Z,18.94
2023-05-22T04:27:56.977Z,18.91
2023-05-22T04:30:28.725Z,18.92
2023-05-22T04:33:01.146Z,18.92
2023-05-22T04:35:35.365Z,18.93
2023-05-22T04:38:08.718Z,18.92
2023-05-22T04:40:40.778Z,18.93
2023-05-22T04:43:12.802Z,18.97
2023-05-22T04:45:44.627Z,19.02
2023-05-22T04:48:16.731Z,19.05
2023-05-22T04:50:48.502Z,19.05
2023-05-22T04:53:20.296Z,19.08
2023-05-22T04:55:52.117Z,19.14
2023-05-22T04:58:24.516Z,19.22
2023-05-22T05:00:58.086Z,19.28
2023-05-22T05:03:30.760Z,19.33
2023-05-22T05:06:02.862Z,19.37
2023-05-22T05:08:35.184Z,19.40
2023-05-22T05:11:06.989Z,19.44
2023-05-22T05:13:39.561Z,19.51
2023-05-22T05:16:12.838Z,19.55
2023-05-22T05:18:44.613Z,19.59
2023-05-22T05:21:16.763Z,19.65
2023-05-22T05:23:52.272Z,19.69
2023-05-22T05:26:24.292Z,19.71
2023-05-22T05:28:59.667Z,19.72
2023-05-22T05:31:33.283Z,19.73
2023-05-22T05:34:22.626Z,19.77
2023-05-22T05:37:06.598Z,19.80
2023-05-22T05:39:38.600Z,19.85
2023-05-22T05:42:12.250Z,19.86
2023-05-22T05:44:44.135Z,19.88
2023-05-22T05:47:17.910Z,19.94
2023-05-22T05:49:49.793Z,19.99
2023-05-22T05:52:24.886Z,20.06
2023-05-22T05:54:56.768Z,20.13
2023-05-22T05:57:29.684Z,20.16
2023-05-22T06:00:01.724Z,20.20
2023-05-22T06:02:48.220Z,20.25
2023-05-22T06:05:30.227Z,20.24
2023-05-22T06:08:04.512Z,20.19
2023-05-22T06:10:36.402Z,20.20
2023-05-22T06:13:18.794Z,20.27
2023-05-22T06:15:50.660Z,20.31
2023-05-22T06:18:23.779Z,20.30
2023-05-22T06:20:58.177Z,20.28
2023-05-22T06:23:31.099Z,20.28
2023-05-22T06:26:05.252Z,20.34
2023-05-22T06:28:37.556Z,20.42
2023-05-22T06:31:10.002Z,20.54
2023-05-22T06:33:45.188Z,20.64
2023-05-22T06:36:17.760Z,20.72
2023-05-22T06:38:49.810Z,20.78
2023-05-22T06:41:23.415Z,20.84
2023-05-22T06:43:55.233Z,20.92
2023-05-22T06:46:29.189Z,20.99
2023-05-22T06:49:02.966Z,21.02
2023-05-22T06:51:42.282Z,21.05
2023-05-22T06:54:15.929Z,21.09
2023-05-22T06:56:49.376Z,21.11
2023-05-22T06:59:22.311Z,21.15
2023-05-22T07:01:55.812Z,21.19
2023-05-22T07:04:35.642Z,21.20
2023-05-22T07:07:10.216Z,21.22
2023-05-22T07:09:42.148Z,21.21
2023-05-22T07:12:14.186Z,21.22
2023-05-22T07:14:45.997Z,21.22
2023-05-22T07:17:18.886Z,21.24
2023-05-22T07:19:50.806Z,21.29
2023-05-22T07:22:22.976Z,21.37
2023-05-22T07:24:55.277Z,21.49
2023-05-22T07:27:27.800Z,21.60
2023-05-22T07:29:59.758Z,21.69
2023-05-22T07:32:32.261Z,21.76
2023-05-22T07:35:05.041Z,21.88
2023-05-22T07:37:39.080Z,21.97
2023-05-22T07:40:11.749Z,22.04
2023-05-22T07:42:44.163Z,22.12
2023-05-22T07:45:16.368Z,22.16
2023-05-22T07:47:48.516Z,22.17
2023-05-22T07:50:20.651Z,22.20
2023-05-22T07:52:53.088Z,22.28
2023-05-22T07:55:24.988Z,22.32
2023-05-22T07:57:57.045Z,22.34
2023-05-22T08:00:31.383Z,22.38
2023-05-22T08:03:03.447Z,22.39
2023-05-22T08:05:35.832Z,22.40
2023-05-22T08:08:07.978Z,22.47
2023-05-22T08:13:13.852Z,22.59
2023-05-22T08:15:45.854Z,22.62
2023-05-22T08:18:17.833Z,22.67
2023-05-22T08:20:51.509Z,22.68
2023-05-22T08:23:24.620Z,22.62
2023-05-22T08:25:57.009Z,22.61
2023-05-22T08:28:28.863Z,22.62
2023-05-22T08:31:00.711Z,22.66
2023-05-22T08:33:32.690Z,22.71
2023-05-22T08:36:04.650Z,22.81
2023-05-22T08:38:36.942Z,22.93
2023-05-22T08:41:09.605Z,23.00
2023-05-22T08:43:42.089Z,23.03
2023-05-22T08:46:15.736Z,23.12
2023-05-22T08:48:48.107Z,23.16
2023-05-22T08:51:20.605Z,23.12
2023-05-22T08:53:53.443Z,23.11
2023-05-22T08:56:27.860Z,23.16
2023-05-22T08:58:59.736Z,23.21
2023-05-22T09:01:39.556Z,23.26
2023-05-22T09:04:11.626Z,23.38
2023-05-22T09:06:43.447Z,23.45
2023-05-22T09:09:15.278Z,23.49
2023-05-22T09:11:47.216Z,23.49
2023-05-22T09:14:19.659Z,23.45
2023-05-22T09:16:53.128Z,23.37
2023-05-22T09:19:25.141Z,23.34
2023-05-22T09:22:04.868Z,23.30
2023-05-22T09:24:42.901Z,23.30
2023-05-22T09:27:14.736Z,23.32
2023-05-22T09:29:50.722Z,23.29
2023-05-22T09:32:24.198Z,23.30
2023-05-22T09:34:56.156Z,23.33
2023-05-22T09:37:29.000Z,23.33
2023-05-22T09:40:02.362Z,23.34
2023-05-22T09:42:35.536Z,23.36
2023-05-22T09:45:08.485Z,23.36
2023-05-22T09:47:40.990Z,23.37
2023-05-22T09:50:12.963Z,23.39
2023-05-22T09:52:47.041Z,23.40
2023-05-22T09:55:18.833Z,23.45
2023-05-22T09:57:52.608Z,23.56
2023-05-22T10:00:25.403Z,23.69
2023-05-22T10:03:05.801Z,23.81
2023-05-22T10:05:38.248Z,23.93
2023-05-22T10:08:13.027Z,24.05
2023-05-22T10:10:46.737Z,24.14
2023-05-22T10:13:19.020Z,24.15
2023-05-22T10:15:51.684Z,24.15
2023-05-22T10:18:24.024Z,24.17
2023-05-22T10:20:55.888Z,24.20
2023-05-22T10:23:29.643Z,24.16
2023-05-22T10:26:01.358Z,24.10
2023-05-22T10:28:39.333Z,24.04
2023-05-22T10:31:23.198Z,23.99
2023-05-22T10:34:14.401Z,24.01
2023-05-22T10:36:49.725Z,24.03
2023-05-22T10:39:40.253Z,24.06
2023-05-22T10:42:16.604Z,24.13
2023-05-22T10:44:49.985Z,24.16
2023-05-22T10:47:22.055Z,24.22
2023-05-22T10:49:55.755Z,24.24
2023-05-22T10:52:27.814Z,24.22
2023-05-22T10:55:02.105Z,24.16
2023-05-22T10:57:34.888Z,24.13
2023-05-22T11:00:11.888Z,24.04
2023-05-22T11:02:45.696Z,24.00
2023-05-22T11:05:26.349Z,23.99
2023-05-22T11:08:12.419Z,23.96
2023-05-22T11:10:56.463Z,23.94
2023-05-22T11:13:31.700Z,23.90
2023-05-22T11:16:06.742Z,23.93
2023-05-22T11:18:38.979Z,24.03
2023-05-22T11:21:12.393Z,24.16
2023-05-22T11:23:44.226Z,24.23
2023-05-22T11:26:25.330Z,24.24
2023-05-22T11:28:57.459Z,24.25
2023-05-22T11:31:30.203Z,24.29
2023-05-22T11:34:02.088Z,24.33
2023-05-22T11:36:33.960Z,24.37
2023-05-22T11:39:05.955Z,24.39
2023-05-22T11:41:38.004Z,24.46
2023-05-22T11:44:09.938Z,24.48
2023-05-22T11:46:42.480Z,24.54
2023-05-22T11:49:25.407Z,24.58
2023-05-22T11:51:57.234Z,24.50
2023-05-22T11:54:35.268Z,24.41
2023-05-22T11:57:09.362Z,24.30
2023-05-22T11:59:41.801Z,24.20
2023-05-22T12:02:14.675Z,24.12
2023-05-22T12:04:47.181Z,24.07
2023-05-22T12:07:19.248Z,24.02
2023-05-22T12:09:51.127Z,23.99
2023-05-22T12:12:23.566Z,23.99
2023-05-22T12:14:55.792Z,23.98
2023-05-22T12:17:28.356Z,23.97
2023-05-22T12:20:00.041Z,23.94
2023-05-22T12:22:31.888Z,23.98
2023-05-22T12:25:03.860Z,24.07
2023-05-22T12:27:38.495Z,24.10
2023-05-22T12:30:13.657Z,24.15
2023-05-22T12:32:52.355Z,24.16
2023-05-22T12:35:25.593Z,24.12
2023-05-22T12:37:57.612Z,24.06
2023-05-22T12:40:29.264Z,24.00
2023-05-22T12:43:01.085Z,23.96
2023-05-22T12:45:33.417Z,23.93
2023-05-22T12:48:05.747Z,23.84
2023-05-22T12:50:38.247Z,23.77
2023-05-22T12:53:10.285Z,23.76
2023-05-22T12:55:42.608Z,23.77
2023-05-22T12:58:14.286Z,23.83
2023-05-22T13:00:46.313Z,23.80
2023-05-22T13:03:18.333Z,23.79
2023-05-22T13:05:50.278Z,23.77
2023-05-22T13:08:23.706Z,23.76
2023-05-22T13:10:55.904Z,23.70
2023-05-22T13:13:27.888Z,23.63
2023-05-22T13:15:59.932Z,23.62
2023-05-22T13:18:32.261Z,23.63
2023-05-22T13:21:04.344Z,23.57
2023-05-22T13:23:36.239Z,23.45
2023-05-22T13:26:08.761Z,23.27
2023-05-22T13:28:41.035Z,23.07
2023-05-22T13:31:12.944Z,22.91
2023-05-22T13:33:44.923Z,22.75
2023-05-22T13:36:16.812Z,22.65
2023-05-22T13:38:49.261Z,22.56
2023-05-22T13:41:21.394Z,22.48
2023-05-22T13:43:53.364Z,22.46
2023-05-22T13:46:25.377Z,22.46
2023-05-22T13:48:57.579Z,22.44
2023-05-22T13:51:29.464Z,22.42
2023-05-22T13:54:01.387Z,22.45
2023-05-22T13:56:33.953Z,22.46
2023-05-22T13:59:08.388Z,22.46
2023-05-22T14:01:39.460Z,22.47
2023-05-22T14:04:11.572Z,22.54
2023-05-22T14:06:44.210Z,22.59
2023-05-22T14:09:16.266Z,22.62
2023-05-22T14:11:48.172Z,22.61
2023-05-22T14:14:21.856Z,22.63
2023-05-22T14:16:54.206Z,22.64
2023-05-22T14:19:26.373Z,22.65
2023-05-22T14:21:58.684Z,22.63
2023-05-22T14:24:30.736Z,22.60
2023-05-22T14:27:02.778Z,22.59
2023-05-22T14:29:35.661Z,22.59
2023-05-22T14:32:07.795Z,22.59
2023-05-22T14:34:40.902Z,22.54
2023-05-22T14:37:12.606Z,22.52
2023-05-22T14:39:44.888Z,22.45
2023-05-22T14:42:16.657Z,22.39
2023-05-22T14:44:48.353Z,22.34
2023-05-22T14:47:20.342Z,22.28
2023-05-22T14:49:57.652Z,22.15
2023-05-22T14:52:28.356Z,22.03
2023-05-22T14:55:00.297Z,21.95
2023-05-22T14:57:32.813Z,21.90
2023-05-22T15:00:09.911Z,21.83
2023-05-22T15:02:42.269Z,21.79
2023-05-22T15:05:15.192Z,21.78
2023-05-22T15:07:49.726Z,21.77
2023-05-22T15:10:21.279Z,21.73
2023-05-22T15:12:54.039Z,21.68
2023-05-22T15:15:26.063Z,21.64
2023-05-22T15:17:59.611Z,21.61
2023-05-22T15:20:31.764Z,21.58
2023-05-22T15:23:03.934Z,21.53
2023-05-22T15:25:36.937Z,21.49
2023-05-22T15:28:08.659Z,21.49
2023-05-22T15:30:44.019Z,21.43
2023-05-22T15:33:16.420Z,21.41
2023-05-22T15:35:48.919Z,21.40
2023-05-22T15:38:21.601Z,21.39
2023-05-22T15:40:53.362Z,21.37
2023-05-22T15:43:28.512Z,21.34
2023-05-22T15:46:00.720Z,21.30
2023-05-22T15:48:33.084Z,21.26
2023-05-22T15:51:07.057Z,21.24
2023-05-22T15:53:39.439Z,21.21
2023-05-22T15:56:11.162Z,21.19
2023-05-22T15:58:43.489Z,21.15
2023-05-22T16:01:15.815Z,21.10
2023-05-22T16:03:47.918Z,21.03
2023-05-22T16:06:20.006Z,20.97
2023-05-22T16:08:53.596Z,20.90
2023-05-22T16:11:26.132Z,20.82
2023-05-22T16:13:59.049Z,20.74
2023-05-22T16:16:31.152Z,20.67
2023-05-22T16:19:03.130Z,20.63
2023-05-22T16:21:36.032Z,20.58
2023-05-22T16:24:09.096Z,20.51
2023-05-22T16:26:40.865Z,20.46
2023-05-22T16:29:12.599Z,20.39
2023-05-22T16:31:44.725Z,20.35
2023-05-22T16:34:18.191Z,20.31
2023-05-22T16:36:50.253Z,20.26
2023-05-22T16:39:22.234Z,20.23
2023-05-22T16:41:54.134Z,20.18
2023-05-22T16:44:26.597Z,20.14
2023-05-22T16:46:58.676Z,20.10
2023-05-22T16:49:31.831Z,20.06
2023-05-22T16:52:04.306Z,20.03
2023-05-22T16:54:37.243Z,20.01
2023-05-22T16:57:09.420Z,19.98
2023-05-22T16:59:41.623Z,19.93
2023-05-22T17:02:14.239Z,19.91
2023-05-22T17:04:46.580Z,19.91
2023-05-22T17:07:18.771Z,19.90
2023-05-22T17:09:50.685Z,19.88
2023-05-22T17:12:23.301Z,19.85
2023-05-22T17:14:55.369Z,19.82
2023-05-22T17:17:27.421Z,19.79
2023-05-22T17:19:59.202Z,19.73
2023-05-22T17:22:31.253Z,19.70
2023-05-22T17:25:03.313Z,19.65
2023-05-22T17:27:36.805Z,19.62
2023-05-22T17:30:10.071Z,19.62
2023-05-22T17:32:41.823Z,19.62
2023-05-22T17:35:13.798Z,19.62
2023-05-22T17:37:46.031Z,19.63
2023-05-22T17:40:20.973Z,19.60
2023-05-22T17:42:54.104Z,19.53
2023-05-22T17:45:26.180Z,19.52
2023-05-22T17:47:58.370Z,19.48
2023-05-22T17:50:30.495Z,19.44
2023-05-22T17:53:03.435Z,19.40
2023-05-22T17:55:36.281Z,19.37
2023-05-22T17:58:08.491Z,19.34
2023-05-22T18:00:40.958Z,19.31
2023-05-22T18:03:13.718Z,19.28
2023-05-22T18:05:45.493Z,19.25
2023-05-22T18:08:17.961Z,19.19
2023-05-22T18:10:50.638Z,19.17
2023-05-22T18:13:22.250Z,19.14
2023-05-22T18:15:54.995Z,19.12
2023-05-22T18:18:27.735Z,19.07
2023-05-22T18:21:03.532Z,19.05
2023-05-22T18:23:35.582Z,19.04
2023-05-22T18:26:07.475Z,19.03
2023-05-22T18:28:39.650Z,19.01
2023-05-22T18:31:11.673Z,19.01
2023-05-22T18:33:46.664Z,19.00
2023-05-22T18:36:18.440Z,18.97
2023-05-22T18:38:50.471Z,18.96
2023-05-22T18:41:23.943Z,18.95
2023-05-22T18:43:55.659Z,18.91
2023-05-22T18:46:27.918Z,18.86
2023-05-22T18:48:59.811Z,18.83
2023-05-22T18:51:32.052Z,18.78
2023-05-22T18:54:04.378Z,18.74
2023-05-22T18:56:39.283Z,18.71
2023-05-22T18:59:11.786Z,18.68
2023-05-22T19:01:43.650Z,18.66
2023-05-22T19:04:15.665Z,18.67
2023-05-22T19:06:47.715Z,18.70
2023-05-22T19:09:19.612Z,18.72
2023-05-22T19:11:51.544Z,18.75
2023-05-22T19:14:23.538Z,18.76
2023-05-22T19:16:55.335Z,18.77
2023-05-22T19:19:27.790Z,18.80
2023-05-22T19:21:59.761Z,18.84
2023-05-22T19:24:32.366Z,18.80
2023-05-22T19:27:05.604Z,18.77
2023-05-22T19:29:37.511Z,18.76
2023-05-22T19:32:09.719Z,18.75
2023-05-22T19:34:41.527Z,18.73
2023-05-22T19:37:13.389Z,18.72
2023-05-22T19:39:45.289Z,18.66
2023-05-22T19:42:17.339Z,18.62
2023-05-22T19:44:49.426Z,18.62
2023-05-22T19:47:21.556Z,18.58
2023-05-22T19:49:53.406Z,18.54
2023-05-22T19:52:27.009Z,18.54
2023-05-22T19:54:59.301Z,18.56
2023-05-22T19:57:31.334Z,18.57
2023-05-22T20:00:04.765Z,18.56
2023-05-22T20:02:37.337Z,18.55
2023-05-22T20:05:12.425Z,18.53
2023-05-22T20:07:44.620Z,18.53
2023-05-22T20:10:17.446Z,18.51
2023-05-22T20:12:49.714Z,18.52
2023-05-22T20:15:22.898Z,18.52
2023-05-22T20:17:55.263Z,18.52
2023-05-22T20:20:27.378Z,18.50
2023-05-22T20:22:59.739Z,18.48
2023-05-22T20:25:31.782Z,18.44
2023-05-22T20:28:05.272Z,18.39
2023-05-22T20:30:36.877Z,18.32
2023-05-22T20:33:08.748Z,18.24
2023-05-22T20:35:41.359Z,18.18
2023-05-22T20:38:14.482Z,18.11
2023-05-22T20:40:48.211Z,18.05
2023-05-22T20:43:20.336Z,18.02
2023-05-22T20:45:52.283Z,17.99
2023-05-22T20:48:24.266Z,17.95
2023-05-22T20:50:56.074Z,17.89
2023-05-22T20:53:28.129Z,17.81
2023-05-22T20:56:00.255Z,17.74
2023-05-22T20:58:32.258Z,17.66
2023-05-22T21:01:04.337Z,17.63
2023-05-22T21:03:36.833Z,17.60
2023-05-22T21:06:08.800Z,17.60
2023-05-22T21:08:40.924Z,17.56
2023-05-22T21:11:13.254Z,17.53
2023-05-22T21:13:45.343Z,17.49
2023-05-22T21:16:17.112Z,17.46
2023-05-22T21:18:48.835Z,17.44
2023-05-22T21:21:23.318Z,17.43
2023-05-22T21:23:55.391Z,17.42
2023-05-22T21:26:27.713Z,17.42
2023-05-22T21:28:59.807Z,17.42
2023-05-22T21:31:34.520Z,17.38
2023-05-22T21:34:05.302Z,17.34
2023-05-22T21:36:37.521Z,17.29
2023-05-22T21:39:09.529Z,17.22
2023-05-22T21:41:41.552Z,17.16
2023-05-22T21:44:13.414Z,17.13
2023-05-22T21:46:45.438Z,17.11
2023-05-22T21:49:17.462Z,17.09
2023-05-22T21:51:49.232Z,17.07
2023-05-22T21:54:21.193Z,17.07
2023-05-22T21:56:53.328Z,17.05
2023-05-22T21:59:25.000Z,17.03
2023-05-22T22:01:57.026Z,17.03
2023-05-22T22:04:28.889Z,16.95
2023-05-22T22:07:00.963Z,16.93
2023-05-22T22:09:32.887Z,16.86
2023-05-22T22:12:04.927Z,16.82
2023-05-22T22:14:36.596Z,16.83
2023-05-22T22:17:08.168Z,16.83
2023-05-22T22:19:41.637Z,16.86
2023-05-22T22:22:13.236Z,16.90
2023-05-22T22:24:46.951Z,16.90
2023-05-22T22:27:19.860Z,16.90
2023-05-22T22:29:51.888Z,16.86
2023-05-22T22:32:23.981Z,16.80
2023-05-22T22:34:55.842Z,16.79
2023-05-22T22:37:27.402Z,16.79
2023-05-22T22:39:59.324Z,16.80
2023-05-22T22:42:32.909Z,16.75
2023-05-22T22:45:04.955Z,16.71
2023-05-22T22:47:37.697Z,16.66
2023-05-22T22:50:10.556Z,16.63
2023-05-22T22:52:45.771Z,16.64
2023-05-22T22:55:17.854Z,16.64
2023-05-22T22:57:50.303Z,16.60
2023-05-22T23:00:22.736Z,16.56
2023-05-22T23:02:54.664Z,16.55
2023-05-22T23:05:27.132Z,16.52
2023-05-22T23:08:00.446Z,16.46
2023-05-22T23:10:32.259Z,16.44
2023-05-22T23:13:04.200Z,16.42
2023-05-22T23:15:35.829Z,16.40
2023-05-22T23:18:07.898Z,16.41
2023-05-22T23:20:39.895Z,16.42
2023-05-22T23:23:11.491Z,16.41
2023-05-22T23:25:43.502Z,16.41
2023-05-22T23:28:17.011Z,16.44
2023-05-22T23:30:48.984Z,16.46
2023-05-22T23:33:21.456Z,16.49
2023-05-22T23:35:53.158Z,16.52
2023-05-22T23:38:24.711Z,16.53
2023-05-22T23:40:56.301Z,16.53
2023-05-22T23:43:29.225Z,16.54
2023-05-22T23:46:01.375Z,16.54
2023-05-22T23:48:33.152Z,16.52
2023-05-22T23:51:06.741Z,16.49
2023-05-22T23:53:38.583Z,16.48
2023-05-22T23:56:10.827Z,16.47
2023-05-22T23:58:42.751Z,16.46
